sensor_id;sensor_type;location;lat;lon;timestamp;pressure;altitude;pressure_sealevel;temperature;humidity
71151;BME280;59071;42.138;24.768;2023-02-28T00:00:22;100189.47;;;12.40;61.75
71151;BME280;59071;42.138;24.768;2023-02-28T00:02:48;100197.22;;;12.15;62.57
71151;BME280;59071;42.138;24.768;2023-02-28T00:05:14;100208.75;;;12.35;62.07
71151;BME280;59071;42.138;24.768;2023-02-28T00:07:40;100204.88;;;12.71;60.42
71151;BME280;59071;42.138;24.768;2023-02-28T00:10:07;100204.88;;;12.78;60.30
71151;BME280;59071;42.138;24.768;2023-02-28T00:12:33;100200.78;;;12.55;61.36
71151;BME280;59071;42.138;24.768;2023-02-28T00:14:59;100210.00;;;12.73;60.30
71151;BME280;59071;42.138;24.768;2023-02-28T00:17:24;100207.50;;;13.11;59.50
71151;BME280;59071;42.138;24.768;2023-02-28T00:19:50;100199.03;;;13.41;58.39
71151;BME280;59071;42.138;24.768;2023-02-28T00:22:16;100207.25;;;13.19;58.29
71151;BME280;59071;42.138;24.768;2023-02-28T00:24:41;100208.06;;;13.26;58.37
71151;BME280;59071;42.138;24.768;2023-02-28T00:27:06;100206.88;;;13.09;59.19
71151;BME280;59071;42.138;24.768;2023-02-28T00:29:32;100207.09;;;12.94;59.49
71151;BME280;59071;42.138;24.768;2023-02-28T00:31:57;100197.41;;;13.13;59.15
71151;BME280;59071;42.138;24.768;2023-02-28T00:34:22;100196.16;;;13.36;58.59
71151;BME280;59071;42.138;24.768;2023-02-28T00:36:47;100190.41;;;13.32;58.10
71151;BME280;59071;42.138;24.768;2023-02-28T00:39:16;100188.00;;;12.90;59.38
71151;BME280;59071;42.138;24.768;2023-02-28T00:41:41;100184.09;;;12.86;59.40
71151;BME280;59071;42.138;24.768;2023-02-28T00:44:06;100185.09;;;13.12;59.41
71151;BME280;59071;42.138;24.768;2023-02-28T00:46:32;100197.19;;;13.28;58.50
71151;BME280;59071;42.138;24.768;2023-02-28T00:48:57;100204.38;;;13.34;58.48
71151;BME280;59071;42.138;24.768;2023-02-28T00:51:22;100205.19;;;13.41;57.95
71151;BME280;59071;42.138;24.768;2023-02-28T00:53:48;100207.16;;;13.59;57.57
71151;BME280;59071;42.138;24.768;2023-02-28T00:56:13;100193.38;;;13.69;56.98
71151;BME280;59071;42.138;24.768;2023-02-28T00:58:38;100191.97;;;13.60;57.31
71151;BME280;59071;42.138;24.768;2023-02-28T01:01:04;100200.84;;;13.47;58.16
71151;BME280;59071;42.138;24.768;2023-02-28T01:03:29;100198.31;;;13.65;57.41
71151;BME280;59071;42.138;24.768;2023-02-28T01:05:54;100216.19;;;13.72;56.99
71151;BME280;59071;42.138;24.768;2023-02-28T01:08:20;100230.09;;;13.87;56.67
71151;BME280;59071;42.138;24.768;2023-02-28T01:10:45;100222.69;;;13.89;55.99
71151;BME280;59071;42.138;24.768;2023-02-28T01:13:11;100220.00;;;13.37;57.39
71151;BME280;59071;42.138;24.768;2023-02-28T01:15:36;100222.03;;;13.42;57.76
71151;BME280;59071;42.138;24.768;2023-02-28T01:18:01;100219.91;;;13.64;56.86
71151;BME280;59071;42.138;24.768;2023-02-28T01:20:27;100204.88;;;13.69;56.15
71151;BME280;59071;42.138;24.768;2023-02-28T01:22:52;100223.34;;;13.78;56.37
71151;BME280;59071;42.138;24.768;2023-02-28T01:25:17;100242.56;;;13.61;56.63
71151;BME280;59071;42.138;24.768;2023-02-28T01:27:43;100238.66;;;13.57;56.88
71151;BME280;59071;42.138;24.768;2023-02-28T01:30:08;100230.41;;;13.59;57.19
71151;BME280;59071;42.138;24.768;2023-02-28T01:32:35;100225.81;;;13.73;57.16
71151;BME280;59071;42.138;24.768;2023-02-28T01:35:00;100227.63;;;13.85;56.10
71151;BME280;59071;42.138;24.768;2023-02-28T01:37:25;100236.66;;;13.91;56.03
71151;BME280;59071;42.138;24.768;2023-02-28T01:39:51;100243.47;;;13.87;56.07
71151;BME280;59071;42.138;24.768;2023-02-28T01:42:16;100246.41;;;13.72;56.43
71151;BME280;59071;42.138;24.768;2023-02-28T01:47:18;100262.78;;;13.30;57.60
71151;BME280;59071;42.138;24.768;2023-02-28T01:49:44;100267.31;;;13.30;57.74
71151;BME280;59071;42.138;24.768;2023-02-28T01:52:09;100271.41;;;13.39;57.24
71151;BME280;59071;42.138;24.768;2023-02-28T01:54:43;100267.03;;;13.52;57.02
71151;BME280;59071;42.138;24.768;2023-02-28T01:57:11;100264.63;;;13.37;57.48
71151;BME280;59071;42.138;24.768;2023-02-28T02:00:01;100273.84;;;13.54;56.80
71151;BME280;59071;42.138;24.768;2023-02-28T02:02:25;100283.53;;;13.42;57.05
71151;BME280;59071;42.138;24.768;2023-02-28T02:04:53;100287.66;;;12.91;58.87
71151;BME280;59071;42.138;24.768;2023-02-28T02:07:19;100289.72;;;12.82;59.10
71151;BME280;59071;42.138;24.768;2023-02-28T02:09:45;100292.78;;;12.79;59.46
71151;BME280;59071;42.138;24.768;2023-02-28T02:12:15;100289.91;;;12.81;58.70
71151;BME280;59071;42.138;24.768;2023-02-28T02:15:07;100287.00;;;12.49;58.54
71151;BME280;59071;42.138;24.768;2023-02-28T02:17:35;100266.88;;;12.60;57.73
71151;BME280;59071;42.138;24.768;2023-02-28T02:28:12;100295.00;;;12.42;60.08
71151;BME280;59071;42.138;24.768;2023-02-28T02:33:19;100303.63;;;12.44;60.34
71151;BME280;59071;42.138;24.768;2023-02-28T02:38:27;100314.91;;;12.46;60.37
71151;BME280;59071;42.138;24.768;2023-02-28T02:41:00;100313.38;;;12.10;61.80
71151;BME280;59071;42.138;24.768;2023-02-28T02:43:29;100316.50;;;11.86;63.41
71151;BME280;59071;42.138;24.768;2023-02-28T02:45:56;100315.69;;;11.79;64.91
71151;BME280;59071;42.138;24.768;2023-02-28T02:48:25;100319.28;;;11.99;64.24
71151;BME280;59071;42.138;24.768;2023-02-28T02:50:54;100317.69;;;12.11;63.92
71151;BME280;59071;42.138;24.768;2023-02-28T02:53:21;100318.69;;;12.10;63.57
71151;BME280;59071;42.138;24.768;2023-02-28T02:55:49;100323.22;;;12.10;63.88
71151;BME280;59071;42.138;24.768;2023-02-28T02:58:20;100324.50;;;12.21;63.98
71151;BME280;59071;42.138;24.768;2023-02-28T03:00:48;100334.25;;;12.00;64.67
71151;BME280;59071;42.138;24.768;2023-02-28T03:03:15;100345.56;;;12.02;64.60
71151;BME280;59071;42.138;24.768;2023-02-28T03:05:46;100358.66;;;11.97;65.77
71151;BME280;59071;42.138;24.768;2023-02-28T03:08:12;100351.56;;;11.48;68.28
71151;BME280;59071;42.138;24.768;2023-02-28T03:10:42;100353.56;;;11.39;68.10
71151;BME280;59071;42.138;24.768;2023-02-28T03:21:27;100368.91;;;11.93;67.00
71151;BME280;59071;42.138;24.768;2023-02-28T03:23:56;100371.09;;;11.55;69.50
71151;BME280;59071;42.138;24.768;2023-02-28T03:26:24;100373.56;;;11.28;69.75
71151;BME280;59071;42.138;24.768;2023-02-28T03:33:55;100375.91;;;10.52;73.91
71151;BME280;59071;42.138;24.768;2023-02-28T03:36:26;100373.66;;;10.92;73.10
71151;BME280;59071;42.138;24.768;2023-02-28T03:38:58;100376.13;;;10.72;74.85
71151;BME280;59071;42.138;24.768;2023-02-28T03:41:38;100368.47;;;10.84;74.70
71151;BME280;59071;42.138;24.768;2023-02-28T03:44:09;100370.34;;;10.90;73.99
71151;BME280;59071;42.138;24.768;2023-02-28T03:46:40;100380.44;;;10.36;76.39
71151;BME280;59071;42.138;24.768;2023-02-28T03:51:32;100380.56;;;10.65;76.52
71151;BME280;59071;42.138;24.768;2023-02-28T03:54:06;100381.31;;;10.59;77.43
71151;BME280;59071;42.138;24.768;2023-02-28T03:56:34;100389.38;;;10.50;76.85
71151;BME280;59071;42.138;24.768;2023-02-28T03:59:07;100393.88;;;10.65;77.07
71151;BME280;59071;42.138;24.768;2023-02-28T04:01:39;100394.06;;;10.48;77.80
71151;BME280;59071;42.138;24.768;2023-02-28T04:04:06;100403.38;;;10.74;76.56
71151;BME280;59071;42.138;24.768;2023-02-28T04:06:32;100403.75;;;10.92;75.64
71151;BME280;59071;42.138;24.768;2023-02-28T04:08:58;100412.13;;;11.54;73.06
71151;BME280;59071;42.138;24.768;2023-02-28T04:11:35;100414.00;;;11.10;74.68
71151;BME280;59071;42.138;24.768;2023-02-28T04:14:01;100416.44;;;11.33;74.37
71151;BME280;59071;42.138;24.768;2023-02-28T04:16:28;100420.88;;;11.26;73.49
71151;BME280;59071;42.138;24.768;2023-02-28T04:18:54;100429.09;;;11.53;72.10
71151;BME280;59071;42.138;24.768;2023-02-28T04:21:32;100436.53;;;11.36;72.95
71151;BME280;59071;42.138;24.768;2023-02-28T04:23:57;100437.06;;;11.25;73.14
71151;BME280;59071;42.138;24.768;2023-02-28T04:26:32;100433.44;;;11.32;72.58
71151;BME280;59071;42.138;24.768;2023-02-28T04:28:58;100431.84;;;11.60;71.68
71151;BME280;59071;42.138;24.768;2023-02-28T04:31:23;100428.13;;;10.89;74.03
71151;BME280;59071;42.138;24.768;2023-02-28T04:33:49;100428.56;;;10.56;74.48
71151;BME280;59071;42.138;24.768;2023-02-28T04:36:14;100430.34;;;11.07;73.24
71151;BME280;59071;42.138;24.768;2023-02-28T04:38:42;100426.91;;;11.13;74.63
71151;BME280;59071;42.138;24.768;2023-02-28T04:41:08;100419.25;;;11.25;72.50
71151;BME280;59071;42.138;24.768;2023-02-28T04:43:33;100427.25;;;11.53;71.44
71151;BME280;59071;42.138;24.768;2023-02-28T04:46:00;100425.50;;;11.39;71.69
71151;BME280;59071;42.138;24.768;2023-02-28T04:48:29;100434.66;;;11.30;71.11
71151;BME280;59071;42.138;24.768;2023-02-28T04:50:59;100436.47;;;11.08;72.60
71151;BME280;59071;42.138;24.768;2023-02-28T04:53:24;100426.28;;;10.90;72.56
71151;BME280;59071;42.138;24.768;2023-02-28T04:55:49;100419.75;;;11.14;72.25
71151;BME280;59071;42.138;24.768;2023-02-28T04:58:15;100430.25;;;10.79;73.01
71151;BME280;59071;42.138;24.768;2023-02-28T05:00:41;100433.25;;;10.54;73.63
71151;BME280;59071;42.138;24.768;2023-02-28T05:03:06;100439.03;;;10.28;76.05
71151;BME280;59071;42.138;24.768;2023-02-28T05:05:31;100448.94;;;10.20;75.33
71151;BME280;59071;42.138;24.768;2023-02-28T05:07:56;100458.75;;;10.64;73.67
71151;BME280;59071;42.138;24.768;2023-02-28T05:10:22;100458.78;;;10.34;74.07
71151;BME280;59071;42.138;24.768;2023-02-28T05:12:47;100461.69;;;10.39;74.59
71151;BME280;59071;42.138;24.768;2023-02-28T05:15:13;100463.47;;;10.32;74.99
71151;BME280;59071;42.138;24.768;2023-02-28T05:17:39;100471.44;;;10.47;73.89
71151;BME280;59071;42.138;24.768;2023-02-28T05:20:05;100470.44;;;10.33;73.12
71151;BME280;59071;42.138;24.768;2023-02-28T05:22:30;100465.81;;;10.56;73.86
71151;BME280;59071;42.138;24.768;2023-02-28T05:24:56;100474.19;;;10.39;73.67
71151;BME280;59071;42.138;24.768;2023-02-28T05:27:21;100483.47;;;9.90;75.51
71151;BME280;59071;42.138;24.768;2023-02-28T05:29:46;100469.69;;;10.09;76.09
71151;BME280;59071;42.138;24.768;2023-02-28T05:32:12;100483.84;;;10.40;74.25
71151;BME280;59071;42.138;24.768;2023-02-28T05:34:38;100486.94;;;10.28;75.09
71151;BME280;59071;42.138;24.768;2023-02-28T05:37:04;100487.19;;;10.18;75.00
71151;BME280;59071;42.138;24.768;2023-02-28T05:39:29;100485.97;;;10.06;74.41
71151;BME280;59071;42.138;24.768;2023-02-28T05:41:55;100498.28;;;10.22;74.54
71151;BME280;59071;42.138;24.768;2023-02-28T05:44:20;100489.03;;;10.78;72.98
71151;BME280;59071;42.138;24.768;2023-02-28T05:46:45;100497.56;;;10.43;74.04
71151;BME280;59071;42.138;24.768;2023-02-28T05:49:11;100477.72;;;10.01;73.86
71151;BME280;59071;42.138;24.768;2023-02-28T05:51:36;100504.69;;;10.28;75.00
71151;BME280;59071;42.138;24.768;2023-02-28T05:54:04;100501.59;;;10.69;73.12
71151;BME280;59071;42.138;24.768;2023-02-28T05:56:30;100508.53;;;10.10;75.38
71151;BME280;59071;42.138;24.768;2023-02-28T05:58:55;100515.34;;;10.13;75.63
71151;BME280;59071;42.138;24.768;2023-02-28T06:01:22;100510.25;;;10.03;75.46
71151;BME280;59071;42.138;24.768;2023-02-28T06:03:48;100516.41;;;9.89;76.44
71151;BME280;59071;42.138;24.768;2023-02-28T06:06:13;100512.63;;;9.83;76.64
71151;BME280;59071;42.138;24.768;2023-02-28T06:08:38;100522.91;;;10.69;83.87
71151;BME280;59071;42.138;24.768;2023-02-28T06:11:05;100514.81;;;11.13;72.83
71151;BME280;59071;42.138;24.768;2023-02-28T06:14:12;100521.34;;;10.74;72.94
71151;BME280;59071;42.138;24.768;2023-02-28T06:16:39;100525.44;;;10.77;72.10
71151;BME280;59071;42.138;24.768;2023-02-28T06:19:04;100524.53;;;10.70;72.91
71151;BME280;59071;42.138;24.768;2023-02-28T06:21:30;100535.94;;;10.34;74.16
71151;BME280;59071;42.138;24.768;2023-02-28T06:23:56;100524.28;;;9.97;76.24
71151;BME280;59071;42.138;24.768;2023-02-28T06:26:21;100526.81;;;10.13;75.21
71151;BME280;59071;42.138;24.768;2023-02-28T06:28:47;100526.72;;;10.22;74.47
71151;BME280;59071;42.138;24.768;2023-02-28T06:31:13;100522.88;;;10.09;75.48
71151;BME280;59071;42.138;24.768;2023-02-28T06:33:39;100531.97;;;9.77;76.27
71151;BME280;59071;42.138;24.768;2023-02-28T06:36:04;100530.16;;;10.30;74.99
71151;BME280;59071;42.138;24.768;2023-02-28T06:38:30;100528.91;;;9.80;76.33
71151;BME280;59071;42.138;24.768;2023-02-28T06:40:56;100541.50;;;9.63;77.37
71151;BME280;59071;42.138;24.768;2023-02-28T06:43:22;100536.03;;;9.65;77.83
71151;BME280;59071;42.138;24.768;2023-02-28T06:45:48;100532.84;;;9.69;77.62
71151;BME280;59071;42.138;24.768;2023-02-28T06:48:13;100523.78;;;9.78;77.02
71151;BME280;59071;42.138;24.768;2023-02-28T06:50:38;100531.31;;;9.75;77.30
71151;BME280;59071;42.138;24.768;2023-02-28T06:53:03;100527.06;;;9.43;79.12
71151;BME280;59071;42.138;24.768;2023-02-28T06:55:29;100532.63;;;9.56;79.13
71151;BME280;59071;42.138;24.768;2023-02-28T06:57:54;100553.03;;;9.78;77.79
71151;BME280;59071;42.138;24.768;2023-02-28T07:00:22;100548.47;;;9.87;77.41
71151;BME280;59071;42.138;24.768;2023-02-28T07:02:48;100545.69;;;10.42;75.01
71151;BME280;59071;42.138;24.768;2023-02-28T07:05:13;100539.03;;;10.82;73.35
71151;BME280;59071;42.138;24.768;2023-02-28T07:07:38;100557.09;;;10.27;74.17
71151;BME280;59071;42.138;24.768;2023-02-28T07:10:08;100554.13;;;10.22;75.19
71151;BME280;59071;42.138;24.768;2023-02-28T07:12:34;100549.91;;;10.28;74.71
71151;BME280;59071;42.138;24.768;2023-02-28T07:15:01;100542.59;;;10.30;73.85
71151;BME280;59071;42.138;24.768;2023-02-28T07:17:26;100553.28;;;10.07;75.43
71151;BME280;59071;42.138;24.768;2023-02-28T07:19:51;100530.81;;;9.25;77.71
71151;BME280;59071;42.138;24.768;2023-02-28T07:22:16;100570.22;;;9.68;77.99
71151;BME280;59071;42.138;24.768;2023-02-28T07:24:42;100547.47;;;9.42;78.65
71151;BME280;59071;42.138;24.768;2023-02-28T07:27:07;100558.41;;;9.47;79.46
71151;BME280;59071;42.138;24.768;2023-02-28T07:29:32;100570.75;;;9.40;78.80
71151;BME280;59071;42.138;24.768;2023-02-28T07:31:58;100561.78;;;9.41;79.00
71151;BME280;59071;42.138;24.768;2023-02-28T07:34:23;100562.66;;;9.56;78.55
71151;BME280;59071;42.138;24.768;2023-02-28T07:36:48;100584.03;;;9.40;78.95
71151;BME280;59071;42.138;24.768;2023-02-28T07:39:18;100580.28;;;9.26;79.36
71151;BME280;59071;42.138;24.768;2023-02-28T07:41:43;100586.94;;;9.22;79.47
71151;BME280;59071;42.138;24.768;2023-02-28T07:44:12;100581.59;;;8.91;81.49
71151;BME280;59071;42.138;24.768;2023-02-28T07:46:37;100581.72;;;9.06;81.20
71151;BME280;59071;42.138;24.768;2023-02-28T07:49:03;100573.47;;;8.92;81.51
71151;BME280;59071;42.138;24.768;2023-02-28T07:51:29;100563.94;;;9.06;80.93
71151;BME280;59071;42.138;24.768;2023-02-28T07:53:54;100568.91;;;9.09;81.03
71151;BME280;59071;42.138;24.768;2023-02-28T07:56:19;100572.78;;;8.98;81.31
71151;BME280;59071;42.138;24.768;2023-02-28T07:58:45;100569.66;;;9.26;81.46
71151;BME280;59071;42.138;24.768;2023-02-28T08:01:11;100569.56;;;9.43;79.66
71151;BME280;59071;42.138;24.768;2023-02-28T08:03:36;100571.84;;;9.54;78.87
71151;BME280;59071;42.138;24.768;2023-02-28T08:06:03;100586.91;;;9.30;79.84
71151;BME280;59071;42.138;24.768;2023-02-28T08:08:29;100574.38;;;9.16;81.49
71151;BME280;59071;42.138;24.768;2023-02-28T08:10:57;100573.47;;;9.55;79.94
71151;BME280;59071;42.138;24.768;2023-02-28T08:13:23;100575.88;;;10.26;76.45
71151;BME280;59071;42.138;24.768;2023-02-28T08:15:49;100578.94;;;10.23;76.74
71151;BME280;59071;42.138;24.768;2023-02-28T08:18:14;100579.09;;;10.74;73.40
71151;BME280;59071;42.138;24.768;2023-02-28T08:20:39;100578.41;;;10.87;73.05
71151;BME280;59071;42.138;24.768;2023-02-28T08:23:04;100583.22;;;10.24;76.02
71151;BME280;59071;42.138;24.768;2023-02-28T08:25:30;100574.97;;;10.18;76.32
71151;BME280;59071;42.138;24.768;2023-02-28T08:27:55;100573.91;;;10.05;76.10
71151;BME280;59071;42.138;24.768;2023-02-28T08:30:20;100579.22;;;10.05;76.75
71151;BME280;59071;42.138;24.768;2023-02-28T08:32:46;100571.75;;;10.23;76.18
71151;BME280;59071;42.138;24.768;2023-02-28T08:35:11;100568.00;;;10.17;75.57
71151;BME280;59071;42.138;24.768;2023-02-28T08:37:36;100564.34;;;9.81;77.35
71151;BME280;59071;42.138;24.768;2023-02-28T08:40:02;100578.44;;;10.19;76.15
71151;BME280;59071;42.138;24.768;2023-02-28T08:42:29;100575.78;;;10.57;75.01
71151;BME280;59071;42.138;24.768;2023-02-28T08:44:54;100582.75;;;10.73;73.29
71151;BME280;59071;42.138;24.768;2023-02-28T08:47:19;100579.81;;;10.15;75.38
71151;BME280;59071;42.138;24.768;2023-02-28T08:49:45;100580.91;;;10.06;76.72
71151;BME280;59071;42.138;24.768;2023-02-28T08:52:10;100579.81;;;10.38;74.54
71151;BME280;59071;42.138;24.768;2023-02-28T08:54:35;100590.06;;;10.41;75.29
71151;BME280;59071;42.138;24.768;2023-02-28T08:57:01;100591.34;;;10.30;74.81
71151;BME280;59071;42.138;24.768;2023-02-28T08:59:27;100585.31;;;10.51;75.51
71151;BME280;59071;42.138;24.768;2023-02-28T09:01:52;100594.13;;;10.14;75.58
71151;BME280;59071;42.138;24.768;2023-02-28T09:04:17;100591.38;;;10.07;75.50
71151;BME280;59071;42.138;24.768;2023-02-28T09:06:43;100577.03;;;10.31;76.17
71151;BME280;59071;42.138;24.768;2023-02-28T09:09:09;100588.03;;;10.43;74.37
71151;BME280;59071;42.138;24.768;2023-02-28T09:11:34;100586.03;;;11.05;71.96
71151;BME280;59071;42.138;24.768;2023-02-28T09:14:00;100594.41;;;10.87;72.97
71151;BME280;59071;42.138;24.768;2023-02-28T09:16:28;100598.09;;;10.86;73.22
71151;BME280;59071;42.138;24.768;2023-02-28T09:18:53;100594.41;;;10.57;74.01
71151;BME280;59071;42.138;24.768;2023-02-28T09:21:18;100584.84;;;10.33;74.50
71151;BME280;59071;42.138;24.768;2023-02-28T09:23:44;100586.50;;;10.64;73.70
71151;BME280;59071;42.138;24.768;2023-02-28T09:26:14;100593.75;;;10.40;73.21
71151;BME280;59071;42.138;24.768;2023-02-28T09:28:39;100575.47;;;9.53;77.99
71151;BME280;59071;42.138;24.768;2023-02-28T09:31:05;100575.19;;;9.94;77.00
71151;BME280;59071;42.138;24.768;2023-02-28T09:33:30;100572.09;;;10.88;72.66
71151;BME280;59071;42.138;24.768;2023-02-28T09:35:59;100566.66;;;10.96;72.75
71151;BME280;59071;42.138;24.768;2023-02-28T09:38:25;100573.75;;;10.74;73.81
71151;BME280;59071;42.138;24.768;2023-02-28T09:40:52;100557.22;;;10.11;75.09
71151;BME280;59071;42.138;24.768;2023-02-28T09:43:19;100575.63;;;9.97;76.92
71151;BME280;59071;42.138;24.768;2023-02-28T09:45:49;100563.31;;;10.20;77.04
71151;BME280;59071;42.138;24.768;2023-02-28T09:48:19;100572.06;;;10.43;74.55
71151;BME280;59071;42.138;24.768;2023-02-28T09:50:52;100578.25;;;10.44;75.21
71151;BME280;59071;42.138;24.768;2023-02-28T09:53:33;100567.34;;;10.53;74.18
71151;BME280;59071;42.138;24.768;2023-02-28T09:56:04;100570.81;;;10.84;72.51
71151;BME280;59071;42.138;24.768;2023-02-28T10:01:06;100554.81;;;10.39;75.63
71151;BME280;59071;42.138;24.768;2023-02-28T10:03:57;100549.19;;;10.19;76.79
71151;BME280;59071;42.138;24.768;2023-02-28T10:06:28;100545.25;;;9.77;78.41
71151;BME280;59071;42.138;24.768;2023-02-28T10:09:00;100534.50;;;9.47;79.59
71151;BME280;59071;42.138;24.768;2023-02-28T10:11:26;100539.94;;;9.77;79.32
71151;BME280;59071;42.138;24.768;2023-02-28T10:16:34;100549.72;;;10.00;77.39
71151;BME280;59071;42.138;24.768;2023-02-28T10:19:13;100540.53;;;10.02;77.23
71151;BME280;59071;42.138;24.768;2023-02-28T10:21:44;100536.75;;;10.34;75.84
71151;BME280;59071;42.138;24.768;2023-02-28T10:26:37;100526.94;;;10.65;74.65
71151;BME280;59071;42.138;24.768;2023-02-28T10:29:02;100531.44;;;9.96;76.62
71151;BME280;59071;42.138;24.768;2023-02-28T10:31:27;100528.81;;;9.73;78.18
71151;BME280;59071;42.138;24.768;2023-02-28T10:33:53;100528.00;;;10.26;76.50
71151;BME280;59071;42.138;24.768;2023-02-28T10:36:19;100525.91;;;10.66;74.94
71151;BME280;59071;42.138;24.768;2023-02-28T10:38:45;100525.50;;;10.47;75.04
71151;BME280;59071;42.138;24.768;2023-02-28T10:41:11;100516.13;;;10.36;75.17
71151;BME280;59071;42.138;24.768;2023-02-28T10:43:38;100530.78;;;10.62;74.77
71151;BME280;59071;42.138;24.768;2023-02-28T10:51:03;100530.00;;;10.32;75.31
71151;BME280;59071;42.138;24.768;2023-02-28T10:53:48;100518.03;;;9.90;77.31
71151;BME280;59071;42.138;24.768;2023-02-28T10:56:16;100521.53;;;9.90;77.27
71151;BME280;59071;42.138;24.768;2023-02-28T11:01:20;100502.09;;;9.90;77.27
71151;BME280;59071;42.138;24.768;2023-02-28T11:03:45;100502.41;;;10.10;76.72
71151;BME280;59071;42.138;24.768;2023-02-28T11:06:21;100503.41;;;9.94;76.90
71151;BME280;59071;42.138;24.768;2023-02-28T11:11:16;100511.69;;;10.29;76.82
71151;BME280;59071;42.138;24.768;2023-02-28T11:13:42;100505.88;;;10.10;76.29
71151;BME280;59071;42.138;24.768;2023-02-28T11:16:09;100516.38;;;9.51;79.38
71151;BME280;59071;42.138;24.768;2023-02-28T11:18:42;100507.38;;;9.29;80.76
71151;BME280;59071;42.138;24.768;2023-02-28T11:21:09;100492.72;;;9.41;80.99
71151;BME280;59071;42.138;24.768;2023-02-28T11:23:35;100497.06;;;9.95;79.28
71151;BME280;59071;42.138;24.768;2023-02-28T11:26:02;100503.63;;;9.46;80.86
71151;BME280;59071;42.138;24.768;2023-02-28T11:28:31;100492.78;;;9.71;80.50
71151;BME280;59071;42.138;24.768;2023-02-28T11:31:02;100488.09;;;9.96;80.35
71151;BME280;59071;42.138;24.768;2023-02-28T11:33:29;100496.25;;;9.56;81.37
71151;BME280;59071;42.138;24.768;2023-02-28T11:35:57;100495.69;;;9.99;81.28
71151;BME280;59071;42.138;24.768;2023-02-28T11:38:24;100505.81;;;10.18;80.54
71151;BME280;59071;42.138;24.768;2023-02-28T11:43:20;100494.66;;;9.85;81.74
71151;BME280;59071;42.138;24.768;2023-02-28T11:48:20;100489.94;;;9.72;83.81
71151;BME280;59071;42.138;24.768;2023-02-28T11:50:58;100497.06;;;9.95;81.66
71151;BME280;59071;42.138;24.768;2023-02-28T11:58:34;100492.63;;;10.40;80.52
71151;BME280;59071;42.138;24.768;2023-02-28T12:13:24;100464.16;;;10.26;80.23
71151;BME280;59071;42.138;24.768;2023-02-28T12:16:16;100471.34;;;10.40;80.19
71151;BME280;59071;42.138;24.768;2023-02-28T12:24:33;100474.66;;;10.93;77.86
71151;BME280;59071;42.138;24.768;2023-02-28T12:26:42;100477.84;;;10.67;78.00
71151;BME280;59071;42.138;24.768;2023-02-28T12:29:24;100474.06;;;10.62;78.70
71151;BME280;59071;42.138;24.768;2023-02-28T12:34:38;100469.81;;;10.82;77.75
71151;BME280;59071;42.138;24.768;2023-02-28T12:37:06;100461.06;;;10.88;77.69
71151;BME280;59071;42.138;24.768;2023-02-28T12:39:36;100470.94;;;10.73;78.38
71151;BME280;59071;42.138;24.768;2023-02-28T12:42:11;100463.88;;;10.06;80.64
71151;BME280;59071;42.138;24.768;2023-02-28T12:44:56;100465.63;;;10.58;79.81
71151;BME280;59071;42.138;24.768;2023-02-28T12:47:22;100452.44;;;10.86;77.65
71151;BME280;59071;42.138;24.768;2023-02-28T12:49:52;100455.88;;;10.80;78.03
71151;BME280;59071;42.138;24.768;2023-02-28T12:52:21;100459.50;;;10.43;79.33
71151;BME280;59071;42.138;24.768;2023-02-28T12:57:34;100459.69;;;10.26;80.53
71151;BME280;59071;42.138;24.768;2023-02-28T13:00:13;100459.56;;;10.20;81.20
71151;BME280;59071;42.138;24.768;2023-02-28T13:10:16;100450.56;;;9.91;83.09
71151;BME280;59071;42.138;24.768;2023-02-28T13:12:50;100445.16;;;9.69;84.67
71151;BME280;59071;42.138;24.768;2023-02-28T13:15:25;100453.53;;;9.96;83.05
71151;BME280;59071;42.138;24.768;2023-02-28T13:17:54;100457.94;;;10.33;82.74
71151;BME280;59071;42.138;24.768;2023-02-28T13:20:21;100456.34;;;10.24;82.44
71151;BME280;59071;42.138;24.768;2023-02-28T13:22:50;100455.97;;;9.97;84.12
71151;BME280;59071;42.138;24.768;2023-02-28T13:27:57;100448.09;;;9.51;86.96
71151;BME280;59071;42.138;24.768;2023-02-28T13:35:46;100448.13;;;9.28;89.55
71151;BME280;59071;42.138;24.768;2023-02-28T13:38:16;100443.03;;;9.79;88.89
71151;BME280;59071;42.138;24.768;2023-02-28T13:40:42;100449.09;;;10.03;86.77
71151;BME280;59071;42.138;24.768;2023-02-28T13:43:08;100444.44;;;10.50;85.06
71151;BME280;59071;42.138;24.768;2023-02-28T13:45:33;100452.88;;;10.68;83.95
71151;BME280;59071;42.138;24.768;2023-02-28T13:48:17;100439.09;;;10.80;83.26
71151;BME280;59071;42.138;24.768;2023-02-28T13:50:43;100448.94;;;10.64;83.12
71151;BME280;59071;42.138;24.768;2023-02-28T14:03:56;100451.41;;;10.06;84.80
71151;BME280;59071;42.138;24.768;2023-02-28T14:06:29;100450.28;;;9.86;87.63
71151;BME280;59071;42.138;24.768;2023-02-28T14:11:41;100448.94;;;10.20;85.19
71151;BME280;59071;42.138;24.768;2023-02-28T14:14:07;100451.25;;;10.23;85.45
71151;BME280;59071;42.138;24.768;2023-02-28T14:16:39;100449.69;;;10.28;85.24
71151;BME280;59071;42.138;24.768;2023-02-28T14:19:27;100451.53;;;10.43;84.34
71151;BME280;59071;42.138;24.768;2023-02-28T14:22:00;100463.66;;;10.30;84.52
71151;BME280;59071;42.138;24.768;2023-02-28T14:24:42;100463.59;;;10.60;83.77
71151;BME280;59071;42.138;24.768;2023-02-28T14:37:38;100458.00;;;11.06;80.49
71151;BME280;59071;42.138;24.768;2023-02-28T14:40:04;100458.69;;;10.93;80.93
71151;BME280;59071;42.138;24.768;2023-02-28T14:42:37;100454.28;;;10.86;81.64
71151;BME280;59071;42.138;24.768;2023-02-28T14:45:21;100454.53;;;10.10;85.58
71151;BME280;59071;42.138;24.768;2023-02-28T14:47:47;100456.66;;;10.59;83.43